createdAt,value
2022-12-12T00:01:48.529Z,-0.22
2022-12-12T00:04:15.378Z,-0.23
2022-12-12T00:06:42.061Z,-0.26
2022-12-12T00:09:09.624Z,-0.27
2022-12-12T00:11:36.843Z,-0.27
2022-12-12T00:14:04.305Z,-0.28
2022-12-12T00:16:31.013Z,-0.28
2022-12-12T00:18:57.663Z,-0.27
2022-12-12T00:21:27.157Z,-0.30
2022-12-12T00:23:55.144Z,-0.32
2022-12-12T00:26:27.247Z,-0.28
2022-12-12T00:28:54.561Z,-0.30
2022-12-12T00:31:21.712Z,-0.27
2022-12-12T00:33:51.788Z,-0.29
2022-12-12T00:36:21.591Z,-0.29
2022-12-12T00:38:48.652Z,-0.33
2022-12-12T00:41:15.567Z,-0.32
2022-12-12T00:43:43.172Z,-0.31
2022-12-12T00:46:14.576Z,-0.32
2022-12-12T00:48:41.325Z,-0.30
2022-12-12T00:51:10.396Z,-0.29
2022-12-12T00:53:38.546Z,-0.31
2022-12-12T00:56:06.088Z,-0.33
2022-12-12T00:58:33.721Z,-0.34
2022-12-12T01:01:06.544Z,-0.34
2022-12-12T01:03:35.085Z,-0.33
2022-12-12T01:06:04.574Z,-0.30
2022-12-12T01:08:31.284Z,-0.29
2022-12-12T01:10:57.986Z,-0.29
2022-12-12T01:13:25.403Z,-0.29
2022-12-12T01:15:52.123Z,-0.30
2022-12-12T01:18:19.362Z,-0.33
2022-12-12T01:20:46.451Z,-0.37
2022-12-12T01:23:13.699Z,-0.43
2022-12-12T01:25:40.770Z,-0.47
2022-12-12T01:28:07.886Z,-0.48
2022-12-12T01:30:34.704Z,-0.49
2022-12-12T01:33:01.474Z,-0.50
2022-12-12T01:35:28.214Z,-0.53
2022-12-12T01:37:54.938Z,-0.52
2022-12-12T01:40:28.657Z,-0.51
2022-12-12T01:42:55.574Z,-0.54
2022-12-12T01:46:02.774Z,-0.56
2022-12-12T01:48:34.954Z,-0.57
2022-12-12T01:51:04.732Z,-0.57
2022-12-12T01:53:32.644Z,-0.56
2022-12-12T01:56:03.439Z,-0.53
2022-12-12T01:58:30.856Z,-0.53
2022-12-12T02:00:57.692Z,-0.53
2022-12-12T02:03:25.189Z,-0.53
2022-12-12T02:05:56.447Z,-0.54
2022-12-12T02:08:23.879Z,-0.56
2022-12-12T02:10:51.334Z,-0.58
2022-12-12T02:13:28.889Z,-0.62
2022-12-12T02:16:32.881Z,-0.62
2022-12-12T02:19:53.138Z,-0.59
2022-12-12T02:22:28.838Z,-0.57
2022-12-12T02:25:01.275Z,-0.58
2022-12-12T02:27:45.300Z,-0.58
2022-12-12T02:30:14.812Z,-0.57
2022-12-12T02:32:54.679Z,-0.57
2022-12-12T02:35:31.189Z,-0.61
2022-12-12T02:38:04.102Z,-0.64
2022-12-12T02:40:39.857Z,-0.67
2022-12-12T02:43:06.505Z,-0.66
2022-12-12T02:45:39.859Z,-0.68
2022-12-12T02:48:29.864Z,-0.73
2022-12-12T02:50:59.121Z,-0.77
2022-12-12T02:53:25.769Z,-0.78
2022-12-12T02:56:06.508Z,-0.80
2022-12-12T02:58:36.455Z,-0.80
2022-12-12T03:01:31.027Z,-0.82
2022-12-12T03:04:25.125Z,-0.88
2022-12-12T03:07:28.728Z,-0.88
2022-12-12T03:10:01.960Z,-0.89
2022-12-12T03:12:51.038Z,-0.91
2022-12-12T03:15:26.278Z,-0.88
2022-12-12T03:18:21.846Z,-0.88
2022-12-12T03:20:55.930Z,-0.86
2022-12-12T03:23:28.320Z,-0.82
2022-12-12T03:26:03.441Z,-0.80
2022-12-12T03:28:54.845Z,-0.79
2022-12-12T03:31:28.716Z,-0.75
2022-12-12T03:34:02.071Z,-0.77
2022-12-12T03:37:03.778Z,-0.77
2022-12-12T03:39:42.829Z,-0.82
2022-12-12T03:42:18.481Z,-0.88
2022-12-12T03:45:05.813Z,-0.88
2022-12-12T03:47:43.503Z,-0.88
2022-12-12T03:50:22.153Z,-0.89
2022-12-12T03:53:02.101Z,-0.86
2022-12-12T03:55:56.923Z,-0.84
2022-12-12T03:58:37.445Z,-0.87
2022-12-12T04:01:07.949Z,-0.90
2022-12-12T04:04:00.704Z,-0.93
2022-12-12T04:06:30.406Z,-0.94
2022-12-12T04:09:19.567Z,-0.92
2022-12-12T04:12:17.800Z,-0.90
2022-12-12T04:15:22.774Z,-0.87
2022-12-12T04:18:28.991Z,-0.89
2022-12-12T04:21:21.615Z,-0.90
2022-12-12T04:24:05.703Z,-0.94
2022-12-12T04:26:39.651Z,-0.94
2022-12-12T04:29:24.740Z,-0.90
2022-12-12T04:32:13.988Z,-0.86
2022-12-12T04:34:47.263Z,-0.86
2022-12-12T04:37:18.547Z,-0.89
2022-12-12T04:39:48.633Z,-0.90
2022-12-12T04:42:18.792Z,-0.95
2022-12-12T04:44:47.293Z,-0.96
2022-12-12T04:47:15.715Z,-0.94
2022-12-12T04:49:46.194Z,-0.95
2022-12-12T04:52:15.339Z,-0.96
2022-12-12T04:54:49.677Z,-0.99
2022-12-12T04:57:26.066Z,-1.05
2022-12-12T04:59:52.798Z,-1.06
2022-12-12T05:02:39.762Z,-1.03
2022-12-12T05:05:23.861Z,-1.02
2022-12-12T05:07:58.049Z,-1.02
2022-12-12T05:10:25.273Z,-1.04
2022-12-12T05:12:58.292Z,-1.04
2022-12-12T05:15:26.089Z,-1.06
2022-12-12T05:18:07.545Z,-1.06
2022-12-12T05:20:34.739Z,-1.06
2022-12-12T05:23:01.401Z,-1.07
2022-12-12T05:25:28.081Z,-1.04
2022-12-12T05:27:54.694Z,-1.00
2022-12-12T05:30:21.749Z,-1.00
2022-12-12T05:32:48.582Z,-1.05
2022-12-12T05:35:15.539Z,-1.07
2022-12-12T05:37:45.486Z,-1.09
2022-12-12T05:40:17.120Z,-1.14
2022-12-12T05:42:44.060Z,-1.16
2022-12-12T05:45:11.774Z,-1.16
2022-12-12T05:47:38.694Z,-1.20
2022-12-12T05:50:06.052Z,-1.20
2022-12-12T05:52:32.892Z,-1.21
2022-12-12T05:55:05.570Z,-1.21
2022-12-12T05:57:32.292Z,-1.21
2022-12-12T05:59:58.946Z,-1.21
2022-12-12T06:02:25.733Z,-1.23
2022-12-12T06:04:52.486Z,-1.26
2022-12-12T06:07:19.152Z,-1.28
2022-12-12T06:09:45.874Z,-1.29
2022-12-12T06:12:12.752Z,-1.35
2022-12-12T06:14:39.497Z,-1.34
2022-12-12T06:17:06.201Z,-1.30
2022-12-12T06:19:33.545Z,-1.25
2022-12-12T06:22:00.165Z,-1.18
2022-12-12T06:24:27.167Z,-1.13
2022-12-12T06:26:54.035Z,-1.10
2022-12-12T06:29:20.983Z,-1.08
2022-12-12T06:31:47.962Z,-1.08
2022-12-12T06:34:14.791Z,-1.12
2022-12-12T06:36:41.447Z,-1.20
2022-12-12T06:39:08.270Z,-1.18
2022-12-12T06:41:37.280Z,-1.20
2022-12-12T06:44:04.499Z,-1.22
2022-12-12T06:46:31.418Z,-1.22
2022-12-12T06:48:58.694Z,-1.23
2022-12-12T06:51:29.329Z,-1.21
2022-12-12T06:53:56.773Z,-1.21
2022-12-12T06:56:26.122Z,-1.24
2022-12-12T06:58:54.168Z,-1.27
2022-12-12T07:01:22.984Z,-1.28
2022-12-12T07:03:51.814Z,-1.32
2022-12-12T07:06:20.737Z,-1.27
2022-12-12T07:08:48.547Z,-1.25
2022-12-12T07:11:21.349Z,-1.24
2022-12-12T07:13:47.997Z,-1.30
2022-12-12T07:16:14.945Z,-1.31
2022-12-12T07:18:42.059Z,-1.27
2022-12-12T07:21:12.978Z,-1.26
2022-12-12T07:23:39.698Z,-1.28
2022-12-12T07:26:11.808Z,-1.28
2022-12-12T07:28:38.717Z,-1.27
2022-12-12T07:31:07.455Z,-1.26
2022-12-12T07:33:43.129Z,-1.25
2022-12-12T07:36:11.089Z,-1.18
2022-12-12T07:38:37.866Z,-1.15
2022-12-12T07:41:06.591Z,-1.12
2022-12-12T07:43:41.414Z,-1.14
2022-12-12T07:46:11.838Z,-1.12
2022-12-12T07:48:38.486Z,-1.11
2022-12-12T07:51:05.277Z,-1.13
2022-12-12T07:53:32.197Z,-1.12
2022-12-12T07:55:59.076Z,-1.15
2022-12-12T07:58:25.825Z,-1.14
2022-12-12T08:00:52.565Z,-1.17
2022-12-12T08:03:19.265Z,-1.19
2022-12-12T08:05:45.966Z,-1.16
2022-12-12T08:08:12.666Z,-1.18
2022-12-12T08:10:40.754Z,-1.16
2022-12-12T08:13:08.694Z,-1.16
2022-12-12T08:15:35.468Z,-1.16
2022-12-12T08:18:02.590Z,-1.14
2022-12-12T08:20:29.452Z,-1.13
2022-12-12T08:22:56.078Z,-1.14
2022-12-12T08:25:22.739Z,-1.18
2022-12-12T08:27:49.443Z,-1.22
2022-12-12T08:30:16.544Z,-1.22
2022-12-12T08:32:43.380Z,-1.20
2022-12-12T08:35:10.351Z,-1.21
2022-12-12T08:37:37.086Z,-1.19
2022-12-12T08:40:04.114Z,-1.23
2022-12-12T08:42:30.777Z,-1.27
2022-12-12T08:44:57.445Z,-1.30
2022-12-12T08:47:24.119Z,-1.30
2022-12-12T08:49:51.260Z,-1.27
2022-12-12T08:52:17.900Z,-1.25
2022-12-12T08:54:44.536Z,-1.23
2022-12-12T08:57:13.289Z,-1.22
2022-12-12T08:59:39.911Z,-1.18
2022-12-12T09:02:06.849Z,-1.17
2022-12-12T09:04:34.853Z,-1.14
2022-12-12T09:07:08.135Z,-1.13
2022-12-12T09:09:35.308Z,-1.13
2022-12-12T09:12:02.226Z,-1.11
2022-12-12T09:14:28.922Z,-1.09
2022-12-12T09:16:55.782Z,-1.06
2022-12-12T09:19:22.519Z,-1.05
2022-12-12T09:21:49.234Z,-1.02
2022-12-12T09:24:16.869Z,-0.96
2022-12-12T09:26:43.508Z,-0.88
2022-12-12T09:29:11.061Z,-0.80
2022-12-12T09:31:37.774Z,-0.83
2022-12-12T09:34:04.509Z,-0.82
2022-12-12T09:36:31.207Z,-0.80
2022-12-12T09:38:57.825Z,-0.75
2022-12-12T09:41:30.752Z,-0.69
2022-12-12T09:44:08.702Z,-0.63
2022-12-12T09:46:43.968Z,-0.63
2022-12-12T09:49:19.416Z,-0.64
2022-12-12T09:51:49.511Z,-0.59
2022-12-12T09:54:21.667Z,-0.61
2022-12-12T09:57:00.279Z,-0.63
2022-12-12T09:59:51.846Z,-0.58
2022-12-12T10:02:40.173Z,-0.55
2022-12-12T10:05:21.992Z,-0.51
2022-12-12T10:07:54.017Z,-0.50
2022-12-12T10:10:29.140Z,-0.50
2022-12-12T10:12:58.545Z,-0.49
2022-12-12T10:15:36.822Z,-0.49
2022-12-12T10:18:08.025Z,-0.47
2022-12-12T10:20:43.720Z,-0.43
2022-12-12T10:23:47.730Z,-0.43
2022-12-12T10:26:20.438Z,-0.45
2022-12-12T10:28:51.579Z,-0.45
2022-12-12T10:31:39.605Z,-0.44
2022-12-12T10:34:25.009Z,-0.40
2022-12-12T10:37:32.919Z,-0.39
2022-12-12T10:40:15.019Z,-0.35
2022-12-12T10:42:52.146Z,-0.31
2022-12-12T10:46:03.227Z,-0.29
2022-12-12T10:48:30.019Z,-0.24
2022-12-12T10:51:12.046Z,-0.22
2022-12-12T10:53:41.167Z,-0.20
2022-12-12T10:56:12.483Z,-0.18
2022-12-12T10:58:42.056Z,-0.16
2022-12-12T11:01:28.190Z,-0.11
2022-12-12T11:04:06.089Z,-0.07
2022-12-12T11:06:45.147Z,-0.08
2022-12-12T11:09:17.703Z,-0.06
2022-12-12T11:12:04.952Z,-0.01
2022-12-12T11:14:37.445Z,0.04
2022-12-12T11:17:19.180Z,0.13
2022-12-12T11:19:46.107Z,0.18
2022-12-12T11:22:13.968Z,0.19
2022-12-12T11:24:45.508Z,0.21
2022-12-12T11:27:25.594Z,0.27
2022-12-12T11:29:56.207Z,0.33
2022-12-12T11:32:45.116Z,0.37
2022-12-12T11:35:35.816Z,0.38
2022-12-12T11:38:26.689Z,0.38
2022-12-12T11:41:01.351Z,0.40
2022-12-12T11:43:35.812Z,0.40
2022-12-12T11:46:13.541Z,0.39
2022-12-12T11:48:43.107Z,0.44
2022-12-12T11:51:11.047Z,0.49
2022-12-12T11:53:41.653Z,0.51
2022-12-12T11:56:40.687Z,0.52
2022-12-12T11:59:32.595Z,0.57
2022-12-12T12:01:59.396Z,0.62
2022-12-12T12:04:33.873Z,0.61
2022-12-12T12:07:46.841Z,0.64
2022-12-12T12:10:26.311Z,0.64
2022-12-12T12:12:55.999Z,0.65
2022-12-12T12:15:34.697Z,0.68
2022-12-12T12:18:10.096Z,0.70
2022-12-12T12:21:21.183Z,0.70
2022-12-12T12:24:05.705Z,0.70
2022-12-12T12:27:18.703Z,0.74
2022-12-12T12:30:02.526Z,0.79
2022-12-12T12:32:54.145Z,0.83
2022-12-12T12:35:31.059Z,0.86
2022-12-12T12:38:00.742Z,0.92
2022-12-12T12:40:47.857Z,0.91
2022-12-12T12:43:42.387Z,0.85
2022-12-12T12:46:21.360Z,0.85
2022-12-12T12:48:53.561Z,0.86
2022-12-12T12:51:37.327Z,0.87
2022-12-12T12:54:11.973Z,0.90
2022-12-12T12:56:51.379Z,0.95
2022-12-12T12:59:23.641Z,0.97
2022-12-12T13:01:53.814Z,1.01
2022-12-12T13:04:44.051Z,1.04
2022-12-12T13:07:21.702Z,1.09
2022-12-12T13:10:00.418Z,1.16
2022-12-12T13:12:35.741Z,1.15
2022-12-12T13:15:08.028Z,1.15
2022-12-12T13:18:05.427Z,1.14
2022-12-12T13:20:43.549Z,1.16
2022-12-12T13:23:37.381Z,1.20
2022-12-12T13:26:15.705Z,1.21
2022-12-12T13:29:09.565Z,1.26
2022-12-12T13:32:15.256Z,1.30
2022-12-12T13:34:47.099Z,1.35
2022-12-12T13:37:20.527Z,1.40
2022-12-12T13:39:57.580Z,1.45
2022-12-12T13:42:24.335Z,1.51
2022-12-12T13:44:50.992Z,1.53
2022-12-12T13:47:23.293Z,1.51
2022-12-12T13:50:06.967Z,1.52
2022-12-12T13:52:42.395Z,1.54
2022-12-12T13:55:11.844Z,1.55
2022-12-12T13:58:19.545Z,1.55
2022-12-12T14:00:47.041Z,1.57
2022-12-12T14:03:13.735Z,1.54
2022-12-12T14:05:52.453Z,1.47
2022-12-12T14:08:23.882Z,1.36
2022-12-12T14:10:55.977Z,1.28
2022-12-12T14:13:23.168Z,1.25
2022-12-12T14:16:03.499Z,1.24
2022-12-12T14:18:31.811Z,1.22
2022-12-12T14:21:03.984Z,1.25
2022-12-12T14:23:47.940Z,1.29
2022-12-12T14:26:29.503Z,1.29
2022-12-12T14:29:17.753Z,1.27
2022-12-12T14:32:01.505Z,1.29
2022-12-12T14:35:12.542Z,1.24
2022-12-12T14:37:39.153Z,1.21
2022-12-12T14:40:27.627Z,1.17
2022-12-12T14:43:18.793Z,1.14
2022-12-12T14:45:51.341Z,1.12
2022-12-12T14:48:24.968Z,1.10
2022-12-12T14:51:12.054Z,1.02
2022-12-12T14:53:38.721Z,1.00
2022-12-12T14:56:13.180Z,1.00
2022-12-12T14:59:00.542Z,1.02
2022-12-12T15:01:34.511Z,0.98
2022-12-12T15:04:08.446Z,0.94
2022-12-12T15:06:43.090Z,0.91
2022-12-12T15:09:21.814Z,0.88
2022-12-12T15:11:49.123Z,0.88
2022-12-12T15:14:25.965Z,0.87
2022-12-12T15:17:01.567Z,0.85
2022-12-12T15:19:34.822Z,0.82
2022-12-12T15:22:01.991Z,0.79
2022-12-12T15:24:37.298Z,0.78
2022-12-12T15:27:05.749Z,0.79
2022-12-12T15:29:33.750Z,0.79
2022-12-12T15:32:09.518Z,0.78
2022-12-12T15:34:37.896Z,0.77
2022-12-12T15:37:29.511Z,0.75
2022-12-12T15:40:05.085Z,0.68
2022-12-12T15:42:33.245Z,0.64
2022-12-12T15:45:00.493Z,0.61
2022-12-12T15:47:27.216Z,0.59
2022-12-12T15:49:53.932Z,0.59
2022-12-12T15:52:31.529Z,0.58
2022-12-12T15:55:03.149Z,0.55
2022-12-12T15:57:34.378Z,0.50
2022-12-12T16:00:06.224Z,0.46
2022-12-12T16:02:35.678Z,0.42
2022-12-12T16:05:19.278Z,0.41
2022-12-12T16:07:45.948Z,0.44
2022-12-12T16:10:15.816Z,0.46
2022-12-12T16:13:17.836Z,0.46
2022-12-12T16:15:44.422Z,0.43
2022-12-12T16:18:13.824Z,0.45
2022-12-12T16:20:55.554Z,0.44
2022-12-12T16:23:22.918Z,0.45
2022-12-12T16:25:50.123Z,0.45
2022-12-12T16:28:25.883Z,0.46
2022-12-12T16:30:55.753Z,0.44
2022-12-12T16:33:30.218Z,0.43
2022-12-12T16:36:00.646Z,0.41
2022-12-12T16:38:32.377Z,0.40
2022-12-12T16:41:01.236Z,0.37
2022-12-12T16:43:29.206Z,0.32
2022-12-12T16:45:56.850Z,0.30
2022-12-12T16:48:41.848Z,0.28
2022-12-12T16:51:14.799Z,0.26
2022-12-12T16:53:41.458Z,0.24
2022-12-12T16:56:10.321Z,0.20
2022-12-12T16:58:37.567Z,0.14
2022-12-12T17:01:05.641Z,0.09
2022-12-12T17:03:32.999Z,0.06
2022-12-12T17:06:00.161Z,0.06
2022-12-12T17:08:27.493Z,0.07
2022-12-12T17:11:09.515Z,0.09
2022-12-12T17:13:37.644Z,0.09
2022-12-12T17:16:04.626Z,0.11
2022-12-12T17:18:32.316Z,0.14
2022-12-12T17:20:58.947Z,0.13
2022-12-12T17:23:28.309Z,0.11
2022-12-12T17:26:01.036Z,0.09
2022-12-12T17:28:30.803Z,0.11
2022-12-12T17:30:57.659Z,0.16
2022-12-12T17:33:24.397Z,0.19
2022-12-12T17:36:02.387Z,0.22
2022-12-12T17:38:30.531Z,0.26
2022-12-12T17:40:58.771Z,0.30
2022-12-12T17:43:26.165Z,0.30
2022-12-12T17:46:01.069Z,0.30
2022-12-12T17:48:30.090Z,0.28
2022-12-12T17:50:58.631Z,0.28
2022-12-12T17:53:25.520Z,0.28
2022-12-12T17:56:01.217Z,0.29
2022-12-12T17:58:35.448Z,0.29
2022-12-12T18:01:13.213Z,0.30
2022-12-12T18:03:40.856Z,0.30
2022-12-12T18:06:07.676Z,0.32
2022-12-12T18:08:34.723Z,0.34
2022-12-12T18:11:01.596Z,0.34
2022-12-12T18:13:28.358Z,0.35
2022-12-12T18:15:59.527Z,0.34
2022-12-12T18:18:29.857Z,0.33
2022-12-12T18:20:56.667Z,0.32
2022-12-12T18:23:23.311Z,0.31
2022-12-12T18:25:49.978Z,0.31
2022-12-12T18:28:16.677Z,0.30
2022-12-12T18:30:43.339Z,0.28
2022-12-12T18:33:10.756Z,0.25
2022-12-12T18:35:37.417Z,0.25
2022-12-12T18:38:04.177Z,0.22
2022-12-12T18:40:30.996Z,0.18
2022-12-12T18:42:57.656Z,0.14
2022-12-12T18:45:24.403Z,0.12
2022-12-12T18:47:51.164Z,0.10
2022-12-12T18:50:18.384Z,0.09
2022-12-12T18:52:44.979Z,0.11
2022-12-12T18:55:11.658Z,0.09
2022-12-12T18:57:38.269Z,0.08
2022-12-12T19:00:07.404Z,0.07
2022-12-12T19:02:38.637Z,0.04
2022-12-12T19:05:06.887Z,0.04
2022-12-12T19:07:33.817Z,0.01
2022-12-12T19:10:00.450Z,0.01
2022-12-12T19:12:28.313Z,0.00
2022-12-12T19:17:41.574Z,-0.10
2022-12-12T19:20:08.779Z,-0.13
2022-12-12T19:22:50.760Z,-0.12
2022-12-12T19:25:18.770Z,-0.14
2022-12-12T19:27:45.906Z,-0.19
2022-12-12T19:30:14.325Z,-0.24
2022-12-12T19:32:41.321Z,-0.28
2022-12-12T19:35:08.408Z,-0.30
2022-12-12T19:37:37.212Z,-0.30
2022-12-12T19:40:06.639Z,-0.30
2022-12-12T19:42:33.464Z,-0.34
2022-12-12T19:45:00.205Z,-0.31
2022-12-12T19:47:27.449Z,-0.31
2022-12-12T19:49:54.143Z,-0.25
2022-12-12T19:52:20.831Z,-0.23
2022-12-12T19:54:47.499Z,-0.26
2022-12-12T19:57:14.172Z,-0.25
2022-12-12T19:59:40.811Z,-0.23
2022-12-12T20:02:09.557Z,-0.21
2022-12-12T20:04:36.293Z,-0.16
2022-12-12T20:07:02.952Z,-0.16
2022-12-12T20:09:30.223Z,-0.18
2022-12-12T20:12:00.457Z,-0.16
2022-12-12T20:14:30.059Z,-0.17
2022-12-12T20:16:57.488Z,-0.19
2022-12-12T20:19:27.156Z,-0.21
2022-12-12T20:22:03.082Z,-0.17
2022-12-12T20:24:32.894Z,-0.15
2022-12-12T20:27:03.712Z,-0.13
2022-12-12T20:29:30.690Z,-0.12
2022-12-12T20:31:59.828Z,-0.10
2022-12-12T20:34:27.638Z,-0.10
2022-12-12T20:36:55.831Z,-0.10
2022-12-12T20:39:24.758Z,-0.08
2022-12-12T20:41:53.805Z,-0.08
2022-12-12T20:44:20.646Z,-0.10
2022-12-12T20:46:47.428Z,-0.09
2022-12-12T20:49:17.941Z,-0.09
2022-12-12T20:51:55.435Z,-0.07
2022-12-12T20:54:24.535Z,-0.05
2022-12-12T20:56:52.272Z,-0.04
2022-12-12T20:59:19.056Z,-0.04
2022-12-12T21:01:47.452Z,-0.01
2022-12-12T21:04:15.263Z,-0.01
2022-12-12T21:06:48.642Z,0.00
2022-12-12T21:09:23.172Z,-0.02
2022-12-12T21:11:52.752Z,-0.02
2022-12-12T21:14:19.532Z,0.01
2022-12-12T21:16:46.441Z,0.02
2022-12-12T21:19:14.286Z,0.00
2022-12-12T21:21:42.656Z,0.00
2022-12-12T21:24:12.356Z,0.00
2022-12-12T21:26:39.508Z,0.02
2022-12-12T21:29:06.291Z,0.05
2022-12-12T21:31:36.655Z,0.09
2022-12-12T21:34:04.846Z,0.12
2022-12-12T21:36:31.705Z,0.14
2022-12-12T21:39:00.510Z,0.14
2022-12-12T21:41:27.335Z,0.16
2022-12-12T21:43:56.058Z,0.14
2022-12-12T21:46:25.607Z,0.15
2022-12-12T21:49:11.558Z,0.16
2022-12-12T21:51:41.556Z,0.16
2022-12-12T21:54:10.894Z,0.14
2022-12-12T21:56:38.240Z,0.12
2022-12-12T21:59:05.359Z,0.09
2022-12-12T22:01:32.676Z,0.04
2022-12-12T22:04:00.859Z,-0.01
2022-12-12T22:06:30.979Z,-0.02
2022-12-12T22:08:59.045Z,-0.02
2022-12-12T22:11:41.866Z,-0.01
2022-12-12T22:14:16.308Z,0.02
2022-12-12T22:16:42.933Z,0.02
2022-12-12T22:19:14.616Z,0.00
2022-12-12T22:21:43.753Z,0.02
2022-12-12T22:24:10.473Z,0.02
2022-12-12T22:26:39.925Z,0.01
2022-12-12T22:29:10.674Z,-0.01
2022-12-12T22:31:40.493Z,-0.02
2022-12-12T22:34:20.077Z,-0.04
2022-12-12T22:36:48.530Z,-0.03
2022-12-12T22:39:18.824Z,0.02
2022-12-12T22:41:46.346Z,0.06
2022-12-12T22:44:16.172Z,0.10
2022-12-12T22:46:47.936Z,0.12
2022-12-12T22:49:21.095Z,0.16
2022-12-12T22:51:49.148Z,0.18
2022-12-12T22:54:16.021Z,0.20
2022-12-12T22:56:42.761Z,0.21
2022-12-12T22:59:12.035Z,0.23
2022-12-12T23:01:39.181Z,0.24
2022-12-12T23:04:06.794Z,0.24
2022-12-12T23:06:35.391Z,0.23
2022-12-12T23:09:22.758Z,0.24
2022-12-12T23:11:49.848Z,0.21
2022-12-12T23:14:19.805Z,0.21
2022-12-12T23:16:46.640Z,0.21
2022-12-12T23:19:17.403Z,0.22
2022-12-12T23:21:45.057Z,0.22
2022-12-12T23:24:15.023Z,0.23
2022-12-12T23:26:45.172Z,0.23
2022-12-12T23:29:16.313Z,0.24
2022-12-12T23:31:43.280Z,0.25
2022-12-12T23:34:24.510Z,0.24
2022-12-12T23:36:52.631Z,0.25
2022-12-12T23:39:19.908Z,0.23
2022-12-12T23:41:46.676Z,0.23
2022-12-12T23:44:15.457Z,0.23
2022-12-12T23:46:42.838Z,0.20
2022-12-12T23:49:12.350Z,0.17
2022-12-12T23:51:47.488Z,0.16
2022-12-12T23:54:27.321Z,0.15
2022-12-12T23:56:54.868Z,0.08
2022-12-12T23:59:21.848Z,0.04
